Tiempo atmosférico en la estación meteorológica de Valmadrid, Zaragoza (535 m.)



Fecha
DESCASC
Temp. máxima en grados centígrados (hora)
DESCASC
Temp. mínima en grados centígrados (hora)
DESCASC
Temp. media en grados centígrados
DESCASC
Racha de viento máxima en m/sg (hora)
DESCASC
Velocidad máxima media en intervalos de 10 minutos(hora)
DESCASC
Precipitaciones diarias en mm
DESCASC
Precipitaciones de 00:00 a 06:00 en mm
DESCASC
Precipitaciones de 06:00 a 12:00 en mm
DESCASC
Precipitaciones de 12:00 a 18:00 en mm
DESCASC
Precipitaciones de 18:00 a 24:00 en mm
DESCASC
06-07-2020 28.5 (15:00) 17.6 (23:59) 23.1 23.06 (19:50) 13.89 (20:00) 0 0 0 0 0
05-07-2020 33.5 (17:30) 17 (06:50) 25.3 16.39 (01:20) 11.67 (01:20) 0 0 0 0 0
04-07-2020 30.3 (17:30) 13.2 (05:30) 21.7 16.39 (00:10) 12.78 (00:30) 0 0 0 0 0
03-07-2020 25.3 (16:30) 14 (07:00) 19.6 19.72 (01:30) 13.61 (00:20) 0 0 0 0 0
02-07-2020 29.7 (16:50) 15.8 (00:00) 22.8 18.06 (23:10) 12.78 (23:40) 0 0 0 0 0
01-07-2020 34.8 (16:50) 17.2 (00:00) 26 13.61 (22:40) 9.17 (23:20) 0 0 0 0 0
30-06-2020 32.5 (17:50) 16.6 (00:00) 24.6 9.72 (00:10) 5 (00:50) 4.6 0 0 0 4.6
29-06-2020 31.6 (17:20) 17.9 (00:00) 24.8 -- (--) -- (--) -- 0 0 0 --
28-06-2020 32.9 (17:20) 18.1 (00:00) 25.5 10.28 (23:50) 7.5 (23:59) 0 0 0 0 0
27-06-2020 31.8 (18:40) 14.7 (00:00) 23.2 7.78 (10:30) 5.56 (10:30) 0 0 0 0 0
26-06-2020 30.6 (15:10) 16.2 (00:00) 23.4 8.61 (02:50) 5.28 (03:20) 6.4 0.6 0 3 2.8
25-06-2020 32.7 (15:30) 15.1 (00:00) 23.9 13.89 (19:40) 6.94 (20:30) 8.2 0 0 0.4 7.8
24-06-2020 33.5 (15:10) 17.8 (00:00) 25.6 13.33 (18:40) 8.06 (18:40) 6 0 0 5.8 0.2
23-06-2020 33.5 (16:50) 15.6 (00:00) 24.6 10.83 (20:50) 7.22 (20:50) 0 0 0 0 0
22-06-2020 31 (17:30) 16.9 (00:00) 23.9 18.33 (02:40) 13.33 (04:20) 0 0 0 0 0
21-06-2020 31.1 (16:50) 17.7 (00:00) 24.4 12.5 (22:10) 9.17 (22:10) 0 0 0 0 0
20-06-2020 31.7 (17:50) 13.5 (00:00) 22.6 6.11 (16:40) 4.44 (09:20) 0 0 0 0 0
19-06-2020 27.4 (17:10) 13.6 (00:00) 20.5 8.06 (18:30) 5 (21:00) 0 0 0 0 0
18-06-2020 24.5 (17:50) 11.4 (05:40) 17.9 12.22 (05:30) 5.83 (03:00) 4.6 4.4 0.2 0 0
17-06-2020 22.7 (17:40) 11.4 (00:00) 17.1 12.22 (00:10) 8.06 (01:00) 0 0 0 0 0
16-06-2020 24.3 (17:00) 13.1 (00:00) 18.7 13.61 (19:40) 9.17 (19:40) 4.8 0.4 4.2 0.2 0
15-06-2020 26.9 (16:20) 13.6 (00:00) 20.3 9.17 (21:10) 6.39 (21:10) 0 0 0 0 0
14-06-2020 26.4 (16:10) 9.7 (00:00) 18 9.17 (16:20) 6.11 (23:40) 0 0 0 0 0
13-06-2020 23.1 (17:30) 10.7 (00:00) 16.9 12.78 (17:10) 7.78 (10:20) 0 0 0 0 0
12-06-2020 22.2 (18:50) 9.4 (00:00) 15.8 12.22 (16:30) 6.39 (16:30) 0.6 0.6 0 0 0
11-06-2020 24.9 (13:50) 12 (00:00) 18.4 8.61 (23:20) 5.56 (00:20) 4.2 0 0 0 4.2

Gráficas

Temp. máximas Temp. mínimas Temp. medias Precipitaciones Rachas de viento máximas Velocidades máximas media en intervalos de 10 minutos

Datos horarios

Fecha y hora oficial Temperatura (ºC) Velocidad del viento (km/h) Dirección del viento Racha (km/h) Dirección de racha Precipitación (mm) Presión (hPa) Tendencia (hPa) Humedad (%)
2020-07-10 23:00:00 19.3 43 Oeste 56 Oeste 0 -- -- 68
2020-07-10 22:00:00 20.8 36 Oeste 50 Oeste 0 -- -- 64
2020-07-10 21:00:00 24 23 Oeste 43 Oeste 0 -- -- 56
2020-07-10 20:00:00 28.1 25 Noroeste 38 Oeste 0 -- -- 46
2020-07-10 19:00:00 31.3 12 Noroeste 22 Norte 0 -- -- 36
2020-07-10 18:00:00 30.7 12 Norte 27 Noroeste 0 -- -- 38
2020-07-10 17:00:00 32 12 Oeste 20 Noroeste 0 -- -- 37
2020-07-10 16:00:00 30.8 8 Noroeste 23 Noroeste 0 -- -- 40
2020-07-10 15:00:00 30.5 12 Oeste 24 Noroeste 0 -- -- 42
2020-07-10 14:00:00 28.6 12 Oeste 22 Oeste 0 -- -- 44
2020-07-10 13:00:00 27 11 Oeste 28 Noroeste 0 -- -- 50
2020-07-10 12:00:00 26.4 12 Oeste 27 Oeste 0 -- -- 52
2020-07-10 11:00:00 24.6 18 Oeste 32 Oeste 0 -- -- 57
2020-07-10 10:00:00 23 16 Oeste 41 Oeste 0 -- -- 64
2020-07-10 09:00:00 20.6 30 Oeste 39 Oeste 0 -- -- 71
2020-07-10 08:00:00 19.1 20 Oeste 48 Oeste 0 -- -- 80
2020-07-10 07:00:00 18.2 8 Oeste 37 Oeste 0 -- -- 82
2020-07-10 06:00:00 19.4 28 Oeste 42 Sudoeste 0 -- -- 73
2020-07-10 05:00:00 20.1 4 Oeste 21 Noroeste 0 -- -- 63
2020-07-10 04:00:00 19.5 3 Sudeste 18 Oeste 0 -- -- 62
2020-07-10 03:00:00 18.3 11 Sudeste 14 Sudeste 0 -- -- 67
2020-07-10 02:00:00 18.2 6 Oeste 11 Sudeste 0 -- -- 67
2020-07-10 01:00:00 21.2 5 Sudeste 34 Sudoeste 0 -- -- 58
2020-07-10 00:00:00 21.9 24 Oeste 50 Oeste 0 -- -- 56
2020-07-09 23:00:00 22.2 32 Sudoeste 73 Sudoeste 0 -- -- 57
2020-07-09 22:00:00 26.5 28 Sudoeste 46 Oeste 0 -- -- 35
2020-07-09 21:00:00 28.2 6 Oeste 10 Norte 0 -- -- 37
2020-07-09 20:00:00 31.7 7 Norte 12 Norte 0 -- -- 28
2020-07-09 19:00:00 33.6 6 Noroeste 14 Noroeste 0 -- -- 21
2020-07-09 18:00:00 33.9 6 Noroeste 18 Sudoeste 0 -- -- 26
2020-07-09 17:00:00 31.3 8 Oeste 22 Oeste 0 -- -- 37
2020-07-09 16:00:00 29.7 9 Noroeste 19 Oeste 0 -- -- 46
2020-07-09 15:00:00 28.7 6 Oeste 23 Sudeste 0 -- -- 51
2020-07-09 14:00:00 28.4 7 Nordeste 15 Oeste 0 -- -- 53
2020-07-09 13:00:00 26.1 6 Sur 27 Este 0 -- -- 60
2020-07-09 12:00:00 25.9 18 Este 27 Este 0 -- -- 61
2020-07-09 11:00:00 25.2 8 Este 14 Este 0 -- -- 62
2020-07-09 10:00:00 25 12 Este 19 Este 0 -- -- 59
2020-07-09 09:00:00 23.8 3 Este 9 Sudeste 0 -- -- 61
2020-07-09 08:00:00 22 4 Sudeste 12 Sudeste 0 -- -- 70
2020-07-09 07:00:00 20.9 4 Oeste 9 Norte 0 -- -- 70
2020-07-09 06:00:00 22.5 9 Norte 45 Sudoeste 0 -- -- 59
2020-07-09 05:00:00 22.9 21 Sudoeste 35 Sudoeste 0 -- -- 63
2020-07-09 04:00:00 20.8 3 Sur 6 Norte 0 -- -- 80
2020-07-09 03:00:00 22.1 3 Nordeste 20 Noroeste 0 -- -- 76
2020-07-09 02:00:00 23.4 10 Noroeste 18 Noroeste 0 -- -- 64
2020-07-09 01:00:00 26.2 3 Nordeste 24 Sudeste 0 -- -- 40
2020-07-09 00:00:00 28.2 20 Sudeste 40 Sudeste 0 -- -- 31
2020-07-08 23:00:00 28.5 14 Sur 44 Sudeste 0 -- -- 30
2020-07-08 22:00:00 27.6 22 Sudeste 37 Sur 0 -- -- 39
2020-07-08 21:00:00 27.6 16 Sudeste 45 Oeste 0 -- -- 39
2020-07-08 20:00:00 28.3 34 Oeste 51 Oeste 0 -- -- 33
2020-07-08 19:00:00 29 6 Sudoeste 21 Este 0 -- -- 34
2020-07-08 18:00:00 30 13 Este 26 Este 0 -- -- 32
2020-07-08 17:00:00 31.3 14 Este 27 Este 0 -- -- 31
2020-07-08 16:00:00 30.9 10 Sudeste 28 Sudeste 0 -- -- 32
2020-07-08 15:00:00 30.8 12 Este 29 Este 0 -- -- 31
2020-07-08 14:00:00 28.8 17 Este 31 Este 0 -- -- 33
2020-07-08 13:00:00 28.2 8 Nordeste 16 Norte 0 -- -- 38
2020-07-08 12:00:00 24.8 11 Oeste 26 Sudoeste 0 -- -- 42
2020-07-08 11:00:00 25.1 9 Norte 18 Norte 0 -- -- 42
2020-07-08 10:00:00 23.4 8 Noroeste 22 Sudoeste 0 -- -- 43
2020-07-08 09:00:00 22 8 Noroeste 13 Noroeste 0 -- -- 46
2020-07-08 08:00:00 17.8 5 Sudeste 10 Sudeste 0 -- -- 61
2020-07-08 07:00:00 15.3 6 Sudeste 11 Sudeste 0 -- -- 66
2020-07-08 06:00:00 17.2 5 Este 11 Sudeste 0 -- -- 59
2020-07-08 05:00:00 18.5 9 Sudeste 14 Norte 0 -- -- 54
2020-07-08 04:00:00 18.8 5 Sudeste 15 Sudoeste 0 -- -- 51
2020-07-08 03:00:00 21.3 5 Sudoeste 20 Oeste 0 -- -- 42
2020-07-08 02:00:00 19.3 6 Sudoeste 15 Oeste 0 -- -- 45
2020-07-08 01:00:00 20.9 4 Sur 14 Sudeste 0 -- -- 40
2020-07-08 00:00:00 20.5 9 Sudeste 14 Sudeste 0 -- -- 37
2020-07-07 23:00:00 22 6 Sudeste 13 Sudeste 0 -- -- 34
2020-07-07 22:00:00 23.4 6 Sudeste 10 Sudeste 0 -- -- 32
2020-07-07 21:00:00 28.1 4 Noroeste 16 Oeste 0 -- -- 23
2020-07-07 20:00:00 31.2 9 Noroeste 20 Noroeste 0 -- -- 19
2020-07-07 19:00:00 31.4 13 Noroeste 27 Noroeste 0 -- -- 17
2020-07-07 18:00:00 31.3 18 Noroeste 29 Oeste 0 -- -- 16
2020-07-07 17:00:00 31.1 18 Noroeste 29 Noroeste 0 -- -- 20
2020-07-07 16:00:00 30.3 13 Noroeste 30 Noroeste 0 -- -- 23
2020-07-07 15:00:00 29.4 17 Noroeste 30 Oeste 0 -- -- 24
2020-07-07 14:00:00 26.7 17 Oeste 31 Oeste 0 -- -- 30
2020-07-07 13:00:00 24.5 20 Oeste 33 Oeste 0 -- -- 34
2020-07-07 12:00:00 22.5 17 Oeste 30 Oeste 0 -- -- 40
2020-07-07 11:00:00 20.8 19 Oeste 41 Oeste 0 -- -- 43
2020-07-07 10:00:00 18.2 23 Oeste 39 Noroeste 0 -- -- 51
2020-07-07 09:00:00 15.9 21 Oeste 40 Oeste 0 -- -- 59
2020-07-07 08:00:00 14.5 5 Sur 30 Noroeste 0 -- -- 60
2020-07-07 07:00:00 13.4 10 Noroeste 39 Noroeste 0 -- -- 61
2020-07-07 06:00:00 14.3 10 Noroeste 46 Oeste 0 -- -- 57
2020-07-07 05:00:00 14.6 36 Noroeste 60 Noroeste 0 -- -- 61
2020-07-07 04:00:00 15.7 41 Oeste 60 Noroeste 0 -- -- 55
2020-07-07 03:00:00 15.8 35 Oeste 56 Oeste 0 -- -- 60
2020-07-07 02:00:00 16.2 35 Oeste 63 Oeste 0 -- -- 63
2020-07-07 01:00:00 16.6 41 Oeste 72 Oeste 0 -- -- 61
2020-07-07 00:00:00 17.6 47 Oeste 71 Oeste 0 -- -- 58
2020-07-06 23:00:00 18.2 28 Oeste 66 Noroeste 0 -- -- 61
2020-07-06 22:00:00 19.2 43 Oeste 79 Oeste 0 -- -- 61
2020-07-06 21:00:00 20.8 37 Oeste 68 Noroeste 0 -- -- 57
2020-07-06 20:00:00 23 50 Oeste 83 Oeste 0 -- -- 52
2020-07-06 19:00:00 25.3 45 Oeste 68 Oeste 0 -- -- 42
2020-07-06 18:00:00 26.8 44 Noroeste 65 Noroeste 0 -- -- 40
2020-07-06 17:00:00 28.1 36 Noroeste 55 Noroeste 0 -- -- 39
2020-07-06 16:00:00 28.4 33 Noroeste 53 Oeste 0 -- -- 41
2020-07-06 15:00:00 28.5 29 Noroeste 49 Oeste 0 -- -- 43
2020-07-06 14:00:00 27.2 33 Oeste 54 Oeste 0 -- -- 47
2020-07-06 13:00:00 26.2 32 Noroeste 49 Noroeste 0 -- -- 50
2020-07-06 12:00:00 25.2 26 Noroeste 47 Oeste 0 -- -- 52
2020-07-06 11:00:00 23.5 26 Noroeste 49 Noroeste 0 -- -- 57
2020-07-06 10:00:00 21.9 26 Noroeste 60 Oeste 0 -- -- 61
2020-07-06 09:00:00 19.8 45 Oeste 65 Oeste 0 -- -- 67
2020-07-06 08:00:00 18.5 30 Oeste 56 Oeste 0 -- -- 69
2020-07-06 07:00:00 18.1 37 Noroeste 57 Noroeste 0 -- -- 66
2020-07-06 06:00:00 18.8 18 Noroeste 48 Noroeste 0 -- -- 65
2020-07-06 05:00:00 19.7 15 Noroeste 60 Oeste 0 -- -- 62
2020-07-06 04:00:00 20.5 42 Oeste 63 Oeste 0 -- -- 58
2020-07-06 03:00:00 21.3 37 Oeste 63 Oeste 0 -- -- 56
2020-07-06 02:00:00 21.5 27 Oeste 42 Noroeste 0 -- -- 54
2020-07-06 01:00:00 22.1 29 Oeste 40 Sudoeste 0 -- -- 53
2020-07-06 00:00:00 23.2 20 Oeste 31 Oeste 0 -- -- 54
2020-07-05 23:00:00 25.5 14 Oeste 27 Oeste 0 -- -- 47
2020-07-05 22:00:00 27.2 17 Oeste 24 Oeste 0 -- -- 42
2020-07-05 21:00:00 29.9 14 Noroeste 22 Noroeste 0 -- -- 33
2020-07-05 20:00:00 32.2 15 Noroeste 25 Oeste 0 -- -- 26
2020-07-05 19:00:00 33 19 Noroeste 30 Noroeste 0 -- -- 25
2020-07-05 18:00:00 33.5 16 Noroeste 33 Noroeste 0 -- -- 26
2020-07-05 17:00:00 33.3 15 Noroeste 28 Noroeste 0 -- -- 25
2020-07-05 16:00:00 32.5 18 Noroeste 33 Oeste 0 -- -- 24
2020-07-05 15:00:00 31.9 17 Noroeste 48 Noroeste 0 -- -- 29
2020-07-05 14:00:00 31.1 17 Noroeste 31 Noroeste 0 -- -- 32
2020-07-05 13:00:00 29 20 Oeste 33 Noroeste 0 -- -- 34
2020-07-05 12:00:00 27.3 20 Noroeste 35 Oeste 0 -- -- 37
2020-07-05 11:00:00 25.3 23 Noroeste 35 Noroeste 0 -- -- 40
2020-07-05 10:00:00 24 22 Noroeste 33 Noroeste 0 -- -- 43
2020-07-05 09:00:00 22.4 14 Oeste 23 Oeste 0 -- -- 45
2020-07-05 08:00:00 20.6 13 Noroeste 19 Noroeste 0 -- -- 48
2020-07-05 07:00:00 17.4 4 Oeste 9 Oeste 0 -- -- 56
2020-07-05 06:00:00 18.2 4 Este 23 Noroeste 0 -- -- 52
2020-07-05 05:00:00 19.8 15 Noroeste 52 Oeste 0 -- -- 48
2020-07-05 04:00:00 20.3 33 Oeste 55 Oeste 0 -- -- 46
2020-07-05 03:00:00 20.3 28 Oeste 57 Oeste 0 -- -- 43
2020-07-05 02:00:00 20.9 35 Oeste 59 Oeste 0 -- -- 37
2020-07-05 01:00:00 21.3 30 Oeste 53 Oeste 0 -- -- 36
2020-07-05 00:00:00 22 32 Oeste 55 Oeste 0 -- -- 33
2020-07-04 23:00:00 23.2 30 Oeste 45 Oeste 0 -- -- 36
2020-07-04 22:00:00 24.2 24 Oeste 36 Oeste 0 -- -- 33
2020-07-04 21:00:00 26 18 Noroeste 34 Oeste 0 -- -- 27
2020-07-04 20:00:00 28.4 23 Noroeste 37 Noroeste 0 -- -- 26
2020-07-04 19:00:00 29.5 22 Noroeste 38 Noroeste 0 -- -- 22
2020-07-04 18:00:00 30 22 Noroeste 37 Noroeste 0 -- -- 19
2020-07-04 17:00:00 30.1 21 Oeste 37 Oeste 0 -- -- 20
2020-07-04 16:00:00 29.6 21 Noroeste 38 Oeste 0 -- -- 19
2020-07-04 15:00:00 28.1 22 Noroeste 36 Oeste 0 -- -- 22
2020-07-04 14:00:00 27.3 18 Oeste 30 Oeste 0 -- -- 26
2020-07-04 13:00:00 24.3 20 Oeste 33 Oeste 0 -- -- 32
2020-07-04 12:00:00 23.3 21 Noroeste 35 Oeste 0 -- -- 34
2020-07-04 11:00:00 21.3 19 Noroeste 30 Oeste 0 -- -- 43
2020-07-04 10:00:00 18.8 19 Oeste 34 Noroeste 0 -- -- 46
2020-07-04 09:00:00 16.8 13 Oeste 37 Oeste 0 -- -- 54
2020-07-04 08:00:00 14.9 14 Oeste 34 Oeste 0 -- -- 61
2020-07-04 07:00:00 13.8 35 Oeste 46 Oeste 0 -- -- 64
2020-07-04 06:00:00 13.4 25 Oeste 38 Oeste 0 -- -- 64
2020-07-04 05:00:00 13.3 17 Oeste 37 Sudoeste 0 -- -- 63
2020-07-04 04:00:00 13.8 26 Oeste 45 Sudoeste 0 -- -- 61
2020-07-04 03:00:00 14.3 21 Sudoeste 44 Oeste 0 -- -- 59
2020-07-04 02:00:00 14.7 26 Oeste 50 Oeste 0 -- -- 59
2020-07-04 01:00:00 15.7 31 Oeste 59 Oeste 0 -- -- 56
2020-07-04 00:00:00 16.8 46 Oeste 60 Oeste 0 -- -- 53
2020-07-03 23:00:00 17.7 29 Noroeste 46 Noroeste 0 -- -- 52
2020-07-03 22:00:00 18.4 21 Noroeste 37 Noroeste 0 -- -- 52
2020-07-03 21:00:00 20.4 29 Oeste 44 Oeste 0 -- -- 47
2020-07-03 20:00:00 22.4 31 Oeste 47 Oeste 0 -- -- 42
2020-07-03 19:00:00 23.8 34 Noroeste 60 Noroeste 0 -- -- 39
2020-07-03 18:00:00 24.8 33 Noroeste 46 Oeste 0 -- -- 37
2020-07-03 17:00:00 25.3 30 Noroeste 49 Noroeste 0 -- -- 34
2020-07-03 16:00:00 25 24 Oeste 46 Noroeste 0 -- -- 37
2020-07-03 15:00:00 24.2 25 Noroeste 42 Noroeste 0 -- -- 39
2020-07-03 14:00:00 23.5 29 Noroeste 50 Noroeste 0 -- -- 40
2020-07-03 13:00:00 22.2 30 Noroeste 49 Noroeste 0 -- -- 41
2020-07-03 12:00:00 21.2 29 Noroeste 45 Oeste 0 -- -- 46
2020-07-03 11:00:00 20.1 28 Noroeste 45 Noroeste 0 -- -- 50
2020-07-03 10:00:00 18.4 28 Oeste 49 Oeste 0 -- -- 57
2020-07-03 09:00:00 16.4 35 Oeste 54 Oeste 0 -- -- 65
2020-07-03 08:00:00 14.8 30 Oeste 54 Oeste 0 -- -- 69
2020-07-03 07:00:00 14 33 Oeste 63 Oeste 0 -- -- 75
2020-07-03 06:00:00 14.6 44 Oeste 68 Oeste 0 -- -- 70
2020-07-03 05:00:00 14.8 40 Oeste 68 Oeste 0 -- -- 72
2020-07-03 04:00:00 15 46 Oeste 65 Oeste 0 -- -- 71
2020-07-03 03:00:00 15 45 Oeste 67 Oeste 0 -- -- 72
2020-07-03 02:00:00 15.3 41 Oeste 71 Oeste 0 -- -- 73
2020-07-03 01:00:00 15.7 42 Oeste 68 Oeste 0 -- -- 71
2020-07-03 00:00:00 15.8 46 Oeste 65 Oeste 0 -- -- 71
2020-07-02 23:00:00 16.5 44 Oeste 63 Oeste 0 -- -- 69
2020-07-02 22:00:00 18.1 42 Oeste 60 Oeste 0 -- -- 65
2020-07-02 21:00:00 20.4 37 Oeste 59 Noroeste 0 -- -- 59
2020-07-02 20:00:00 22.4 36 Oeste 50 Oeste 0 -- -- 55
2020-07-02 19:00:00 25.7 36 Oeste 51 Oeste 0 -- -- 47
2020-07-02 18:00:00 28.3 27 Noroeste 36 Noroeste 0 -- -- 41
2020-07-02 17:00:00 29.3 22 Noroeste 32 Noroeste 0 -- -- 39
2020-07-02 16:00:00 29.4 17 Noroeste 33 Noroeste 0 -- -- 42
2020-07-02 15:00:00 28 17 Noroeste 33 Oeste 0 -- -- 44
2020-07-02 14:00:00 27.5 15 Noroeste 31 Noroeste 0 -- -- 48
2020-07-02 13:00:00 26.5 15 Noroeste 29 Oeste 0 -- -- 50
2020-07-02 12:00:00 25.7 10 Oeste 24 Noroeste 0 -- -- 54
2020-07-02 11:00:00 24.1 17 Oeste 30 Oeste 0 -- -- 56
2020-07-02 10:00:00 22.3 23 Oeste 31 Oeste 0 -- -- 62
2020-07-02 09:00:00 20.2 20 Oeste 35 Oeste 0 -- -- 69
2020-07-02 08:00:00 18.7 8 Oeste 23 Sudoeste 0 -- -- 75
2020-07-02 07:00:00 17.1 4 Norte 12 Oeste 0 -- -- 78
2020-07-02 06:00:00 17.7 5 Noroeste 19 Oeste 0 -- -- 74
2020-07-02 05:00:00 18.4 6 Sudoeste 30 Noroeste 0 -- -- 72
2020-07-02 04:00:00 18.6 18 Oeste 36 Oeste 0 -- -- 72
2020-07-02 03:00:00 18.9 12 Oeste 36 Noroeste 0 -- -- 72
2020-07-02 02:00:00 19.5 18 Oeste 49 Oeste 0 -- -- 70
2020-07-02 01:00:00 20 23 Oeste 49 Oeste 0 -- -- 70
2020-07-02 00:00:00 21.3 20 Oeste 49 Oeste 0 -- -- 66
2020-07-01 23:00:00 22.7 30 Oeste 49 Oeste 0 -- -- 63
2020-07-01 22:00:00 23.5 16 Noroeste 35 Oeste 0 -- -- 61
2020-07-01 21:00:00 25.2 10 Noroeste 42 Noroeste 0 -- -- 61
2020-07-01 20:00:00 28.6 26 Noroeste 46 Oeste 0 -- -- 51
2020-07-01 19:00:00 32.5 23 Noroeste 37 Noroeste 0 -- -- 29
2020-07-01 18:00:00 32.4 10 Norte 21 Este 0 -- -- 39
2020-07-01 17:00:00 33.3 6 Norte 25 Este 0 -- -- 37
2020-07-01 16:00:00 33 14 Sudeste 22 Nordeste 0 -- -- 42
2020-07-01 15:00:00 33.4 8 Norte 31 Norte 0 -- -- 40
2020-07-01 14:00:00 31.9 13 Oeste 26 Noroeste 0 -- -- 41
2020-07-01 13:00:00 30.4 7 Norte 17 Norte 0 -- -- 50
2020-07-01 12:00:00 28.4 4 Nordeste 11 Este 0 -- -- 60
2020-07-01 11:00:00 25.5 4 Norte 11 Norte 0 -- -- 72
2020-07-01 10:00:00 24.1 6 Norte 10 Norte 0 -- -- 80
2020-07-01 09:00:00 22 6 Norte 9 Norte 0 -- -- 85
2020-07-01 08:00:00 19.9 0 Calma 6 Sur 0 -- -- 93
2020-07-01 07:00:00 17.2 3 Sudeste 6 Sur 0 -- -- 98
2020-07-01 06:00:00 17.9 0 Calma 5 Norte 0 -- -- 96
2020-07-01 05:00:00 18.6 0 Calma 6 Sudeste 0 -- -- 95
2020-07-01 04:00:00 19.1 2 Nordeste 15 Sudeste 0 -- -- 93
2020-07-01 03:00:00 20.5 15 Sudeste 21 Sudeste 0 -- -- 87
2020-07-01 02:00:00 21.1 8 Este 16 Sur 0 -- -- 89
2020-07-01 01:00:00 21.5 10 Sur 19 Sur 0 -- -- 88
2020-07-01 00:00:00 21.6 4 Noroeste 19 Este 3.6 -- -- 89
2020-06-30 23:00:00 22.7 8 Sudeste 26 Este 0 -- -- 86
2020-06-30 22:00:00 24 5 Este 23 Este 0.2 -- -- 80
2020-06-30 21:00:00 26.8 15 Este 24 Este 0.2 -- -- 66
2020-06-30 20:00:00 29.7 15 Este 27 Nordeste 0.6 -- -- 58
2020-06-30 19:00:00 31.2 12 Este 27 Nordeste 0 -- -- 41
2020-06-30 18:00:00 32.1 12 Este 25 Nordeste 0 -- -- 35
2020-06-30 17:00:00 31.4 13 Nordeste 23 Sudeste 0 -- -- 36
2020-06-30 16:00:00 30.7 11 Este 23 Este 0 -- -- 42
2020-06-30 15:00:00 29.9 8 Norte 22 Este 0 -- -- 42
2020-06-30 14:00:00 28.4 9 Nordeste 20 Nordeste 0 -- -- 43
2020-06-30 13:00:00 27.8 6 Norte 15 Nordeste 0 -- -- 43
2020-06-30 12:00:00 26.6 6 Norte 15 Norte 0 -- -- 43
2020-06-30 11:00:00 24.7 4 Este 10 Nordeste 0 -- -- 45
2020-06-30 10:00:00 23.6 5 Norte 15 Nordeste 0 -- -- 44
2020-06-30 09:00:00 21.6 0 Calma 12 Noroeste 0 -- -- 55
2020-06-30 08:00:00 18.3 4 Este 10 Este 0 -- -- 70
2020-06-30 07:00:00 16.7 6 Sudeste 18 Sudoeste 0 -- -- 73
2020-06-30 06:00:00 16.9 6 Sudeste 15 Oeste 0 -- -- 72
2020-06-30 05:00:00 17.2 5 Sur 18 Oeste 0 -- -- 72
2020-06-30 04:00:00 17.9 6 Noroeste 23 Oeste 0 -- -- 69
2020-06-30 03:00:00 18.6 5 Nordeste 14 Noroeste 0 -- -- 68
2020-06-30 02:00:00 18.8 10 Oeste 33 Noroeste 0 -- -- 69
2020-06-30 01:00:00 19.1 18 Noroeste 35 Noroeste 0 -- -- 70
2020-06-30 00:00:00 20 21 Oeste 40 Noroeste 0 -- -- 69
2020-06-29 23:00:00 21 22 Oeste 39 Oeste 0 -- -- 66
2020-06-29 22:00:00 22.7 -- -- -- -- -- -- -- --
2020-06-29 21:00:00 25.8 20 Oeste 30 Oeste 0 -- -- 53
2020-06-29 20:00:00 29.5 17 Noroeste 23 Noroeste 0 -- -- 45
2020-06-29 19:00:00 30.8 10 Noroeste 21 Noroeste 0 -- -- 42
2020-06-29 18:00:00 31.4 13 Noroeste 24 Noroeste 0 -- -- 41
2020-06-29 17:00:00 31.2 9 Noroeste 21 Noroeste 0 -- -- 40
2020-06-29 16:00:00 30 11 Norte 27 Noroeste 0 -- -- 43
2020-06-29 15:00:00 30.1 14 Noroeste 31 Noroeste 0 -- -- 44
2020-06-29 14:00:00 28.6 14 Noroeste 26 Noroeste 0 -- -- 48
2020-06-29 13:00:00 27.6 16 Noroeste 26 Noroeste 0 -- -- 50
2020-06-29 12:00:00 26.4 15 Noroeste 28 Oeste 0 -- -- 52
2020-06-29 11:00:00 25 19 Noroeste 29 Noroeste 0 -- -- 56
2020-06-29 10:00:00 23.1 9 Oeste 23 Noroeste 0 -- -- 61
2020-06-29 09:00:00 21.3 6 Norte 17 Noroeste 0 -- -- 66
2020-06-29 08:00:00 19.7 8 Norte 26 Noroeste 0 -- -- 71
2020-06-29 07:00:00 18.2 4 Nordeste 20 Oeste 0 -- -- 75
2020-06-29 06:00:00 18.1 5 Oeste 26 Oeste 0 -- -- 76
2020-06-29 05:00:00 18.5 8 Nordeste 26 Noroeste 0 -- -- 74
2020-06-29 04:00:00 18.9 7 Sudoeste 35 Oeste 0 -- -- 73
2020-06-29 03:00:00 19.1 18 Oeste 34 Sudoeste 0 -- -- 72
2020-06-29 02:00:00 20.1 21 Oeste 36 Sudoeste 0 -- -- 68
2020-06-29 01:00:00 21.6 20 Oeste 46 Oeste 0 -- -- 63
2020-06-29 00:00:00 23.7 27 Oeste 37 Oeste 0 -- -- 58
2020-06-28 23:00:00 25.5 21 Oeste 31 Oeste 0 -- -- 55
2020-06-28 22:00:00 25 2 Nordeste 9 Sudeste 0 -- -- 58
2020-06-28 21:00:00 30.2 2 Oeste 12 Norte 0 -- -- 40
2020-06-28 20:00:00 32 8 Norte 14 Noroeste 0 -- -- 34
2020-06-28 19:00:00 32.3 8 Norte 15 Noroeste 0 -- -- 35
2020-06-28 18:00:00 32.4 8 Norte 22 Norte 0 -- -- 34
2020-06-28 17:00:00 32.4 13 Norte 27 Nordeste 0 -- -- 36
2020-06-28 16:00:00 31.9 10 Norte 19 Norte 0 -- -- 38
2020-06-28 15:00:00 30.9 8 Norte 22 Norte 0 -- -- 42
2020-06-28 14:00:00 30.1 8 Norte 17 Norte 0 -- -- 46
2020-06-28 13:00:00 28.9 8 Noroeste 21 Noroeste 0 -- -- 48
2020-06-28 12:00:00 27.6 12 Norte 20 Noroeste 0 -- -- 49
2020-06-28 11:00:00 26.4 12 Noroeste 24 Noroeste 0 -- -- 54
2020-06-28 10:00:00 24 11 Oeste 18 Oeste 0 -- -- 63
2020-06-28 09:00:00 22.3 10 Oeste 17 Oeste 0 -- -- 68
2020-06-28 08:00:00 20.8 3 Oeste 15 Oeste 0 -- -- 73
2020-06-28 07:00:00 19.5 5 Sur 12 Oeste 0 -- -- 76
2020-06-28 06:00:00 18.6 3 Sudeste 11 Sudeste 0 -- -- 81
2020-06-28 05:00:00 18.8 6 Sudeste 10 Este 0 -- -- 79
2020-06-28 04:00:00 19.6 2 Sudeste 13 Sudeste 0 -- -- 74
2020-06-28 03:00:00 20.4 9 Sudeste 13 Sudeste 0 -- -- 71
2020-06-28 02:00:00 19.3 6 Sudeste 13 Sudeste 0 -- -- 76
2020-06-28 01:00:00 19.7 8 Sudeste 15 Sudeste 0 -- -- 72
2020-06-28 00:00:00 19.6 10 Sudeste 13 Sudeste 0 -- -- 74
2020-06-27 23:00:00 20.3 11 Sudeste 13 Sudeste 0 -- -- 72
2020-06-27 22:00:00 23.3 5 Sudeste 10 Sudeste 0 -- -- 62
2020-06-27 21:00:00 28.4 0 Calma 10 Este 0 -- -- 45
2020-06-27 20:00:00 30.5 5 Norte 19 Norte 0 -- -- 35
2020-06-27 19:00:00 31.1 10 Noroeste 23 Este 0 -- -- 35
2020-06-27 18:00:00 31.4 4 Norte 19 Oeste 0 -- -- 32
2020-06-27 17:00:00 31.2 8 Oeste 22 Noroeste 0 -- -- 36
2020-06-27 16:00:00 30.9 10 Oeste 23 Sur 0 -- -- 32
2020-06-27 15:00:00 29.3 11 Oeste 21 Oeste 0 -- -- 39
2020-06-27 14:00:00 29.5 6 Oeste 21 Oeste 0 -- -- 42
2020-06-27 13:00:00 27.2 10 Oeste 22 Oeste 0 -- -- 48
2020-06-27 12:00:00 25.8 12 Oeste 21 Sudoeste 0 -- -- 51
2020-06-27 11:00:00 24 13 Sudoeste 28 Sudoeste 0 -- -- 56
2020-06-27 10:00:00 22.4 13 Oeste 24 Sudoeste 0 -- -- 69
2020-06-27 09:00:00 20.8 3 Este 13 Oeste 0 -- -- 70
2020-06-27 08:00:00 18.5 3 Este 11 Oeste 0 -- -- 82
2020-06-27 07:00:00 15.4 4 Sudeste 13 Sudeste 0 -- -- 91
2020-06-27 06:00:00 15.3 6 Sur 15 Sur -- -- -- 91
2020-06-27 05:00:00 14.7 5 Oeste 12 Este 0 -- -- 91
2020-06-27 04:00:00 15.2 4 Sudeste 14 Sudeste 0 -- -- 91
2020-06-27 03:00:00 15.6 8 Sudeste 10 Sudeste 0 -- -- 90
2020-06-27 02:00:00 16.7 2 Noroeste 15 Noroeste 0 -- -- 87
2020-06-27 01:00:00 19.6 5 Oeste 14 Sur 0 -- -- 72
2020-06-27 00:00:00 19.6 9 Sudoeste 15 Sudoeste 0 -- -- 71
2020-06-26 23:00:00 19.3 5 Sudoeste 30 Este 0 -- -- 70
2020-06-26 22:00:00 19.2 9 Este 22 Este 0.2 -- -- 73
2020-06-26 21:00:00 19.4 3 Oeste 10 Norte 1 -- -- 78
2020-06-26 20:00:00 20.9 7 Sudoeste 14 Sur 0.2 -- -- 70
2020-06-26 19:00:00 20.1 3 Nordeste 24 Noroeste 1.4 -- -- 79
2020-06-26 18:00:00 20.4 8 Sudeste 14 Sudeste 2.8 -- -- 85
2020-06-26 17:00:00 25 9 Oeste 12 Oeste 0.2 -- -- 46
2020-06-26 16:00:00 27.8 7 Nordeste 24 Este 0 -- -- 38
2020-06-26 15:00:00 30.2 12 Este 23 Este 0 -- -- 31
2020-06-26 14:00:00 28.5 12 Este 21 Este 0 -- -- 39
2020-06-26 13:00:00 26.8 10 Sudeste 19 Este 0 -- -- 47
2020-06-26 12:00:00 25.3 11 Este 19 Este 0 -- -- 47
2020-06-26 11:00:00 24.7 8 Este 17 Este 0 -- -- 47
2020-06-26 10:00:00 23.1 8 Este 15 Este 0 -- -- 48
2020-06-26 09:00:00 21.7 6 Sudeste 15 Sudeste 0 -- -- 59
2020-06-26 08:00:00 19.1 2 Nordeste 9 Sur 0 -- -- 80
2020-06-26 07:00:00 16.2 4 Sur 13 Sudeste 0 -- -- 87
2020-06-26 06:00:00 17.9 9 Sudeste 15 Sudeste 0 -- -- 78
2020-06-26 05:00:00 17.9 4 Sudoeste 20 Sudeste 0 -- -- 81
2020-06-26 04:00:00 18.6 9 Sudeste 30 Sudeste 0 -- -- 75
2020-06-26 03:00:00 18.8 16 Sudeste 31 Sudeste 0.2 -- -- 77
2020-06-26 02:00:00 19.1 9 Sudeste 17 Sudeste 0.4 -- -- 76
2020-06-26 01:00:00 18.5 6 Nordeste 25 Oeste 0 -- -- 91
2020-06-26 00:00:00 18.2 7 Sur 13 Sudoeste 0 -- -- 91
2020-06-25 23:00:00 18.4 4 Sudeste 12 Noroeste 0 -- -- 88
2020-06-25 22:00:00 19.8 6 Nordeste 38 Este 3.6 -- -- 77
2020-06-25 21:00:00 19.8 10 Este 39 Oeste 1.4 -- -- 79
2020-06-25 20:00:00 20.7 23 Este 50 Este 1.8 -- -- 72
2020-06-25 19:00:00 21.8 13 Sudeste 26 Este 1 -- -- 79
2020-06-25 18:00:00 25 3 Sudeste 21 Oeste 0.4 -- -- 66
2020-06-25 17:00:00 29.7 3 Este 29 Nordeste 0 -- -- 34
2020-06-25 16:00:00 32.3 14 Este 28 Nordeste 0 -- -- 32
2020-06-25 15:00:00 32.1 12 Nordeste 26 Nordeste 0 -- -- 34
2020-06-25 14:00:00 30.1 13 Este 26 Este 0 -- -- 39
2020-06-25 13:00:00 28.3 12 Este 23 Este 0 -- -- 46
2020-06-25 12:00:00 26.4 10 Este 19 Nordeste 0 -- -- 53
2020-06-25 11:00:00 24.7 13 Este 20 Este 0 -- -- 56
2020-06-25 10:00:00 23.4 12 Este 17 Este 0 -- -- 63
2020-06-25 09:00:00 21.6 5 Sudeste 15 Sudeste 0 -- -- 69
2020-06-25 08:00:00 19.6 5 Sudeste 10 Sudeste 0 -- -- 76
2020-06-25 07:00:00 16.7 5 Sudeste 12 Sur 0 -- -- 84
2020-06-25 06:00:00 15.3 4 Sur 14 Sudeste 0 -- -- 89
2020-06-25 05:00:00 15.5 6 Sudeste 12 Sudeste 0 -- -- 87
2020-06-25 04:00:00 16.6 5 Noroeste 17 Norte 0 -- -- 82
2020-06-25 03:00:00 19.6 6 Sur 13 Sudoeste 0 -- -- 67
2020-06-25 02:00:00 20.6 9 Sur 15 Sudoeste 0 -- -- 63
2020-06-25 01:00:00 20.2 8 Sur 12 Sur 0 -- -- 67
2020-06-25 00:00:00 20.2 5 Sur 13 Sudeste 0 -- -- 70
2020-06-24 23:00:00 21.7 11 Este 35 Este 0 -- -- 65
2020-06-24 22:00:00 22.7 13 Este 24 Este 0 -- -- 61
2020-06-24 21:00:00 22.9 11 Norte 26 Norte 0 -- -- 59
2020-06-24 20:00:00 25.5 6 Sur 24 Sur 0 -- -- 44
2020-06-24 19:00:00 23.1 13 Sudeste 48 Sudeste 0.2 -- -- 53
2020-06-24 18:00:00 20.9 17 Sudeste 46 Sudoeste 5.8 -- -- 68
2020-06-24 17:00:00 27.1 19 Sur 37 Sur 0 -- -- 42
2020-06-24 16:00:00 31.2 3 Norte 18 Norte 0 -- -- 39
2020-06-24 15:00:00 33.1 10 Noroeste 19 Norte 0 -- -- 37
2020-06-24 14:00:00 31.4 6 Nordeste 19 Este 0 -- -- 41
2020-06-24 13:00:00 30.7 8 Norte 18 Sur 0 -- -- 46
2020-06-24 12:00:00 29.4 5 Nordeste 22 Noroeste 0 -- -- 49
2020-06-24 11:00:00 27.9 5 Norte 14 Norte 0 -- -- 54
2020-06-24 10:00:00 25.1 4 Este 12 Este 0 -- -- 61
2020-06-24 09:00:00 20.4 6 Sur 37 Noroeste 0 -- -- 80
2020-06-24 08:00:00 22.4 9 Sudeste 22 Sudeste 0 -- -- 71
2020-06-24 07:00:00 18.3 9 Sudeste 21 Oeste 0 -- -- 87
2020-06-24 06:00:00 18.1 9 Sudeste 14 Sudeste 0 -- -- 86
2020-06-24 05:00:00 18.5 8 Sudeste 22 Sudeste 0 -- -- 84
2020-06-24 04:00:00 19.4 11 Este 16 Este 0 -- -- 80
2020-06-24 03:00:00 20.7 3 Sudeste 18 Sudoeste 0 -- -- 73
2020-06-24 02:00:00 20.9 5 Sudeste 11 Sudoeste 0 -- -- 72
2020-06-24 01:00:00 22.1 5 Sur 18 Sudeste 0 -- -- 67
2020-06-24 00:00:00 23.7 12 Sudeste 17 Sudeste 0 -- -- 60
2020-06-23 23:00:00 24.7 7 Sudeste 24 Este 0 -- -- 56
2020-06-23 22:00:00 26.7 15 Este 30 Este 0 -- -- 49
2020-06-23 21:00:00 28.6 21 Este 39 Este 0 -- -- 46
2020-06-23 20:00:00 32.2 13 Este 24 Este 0 -- -- 30
2020-06-23 19:00:00 32.8 9 Nordeste 24 Este 0 -- -- 32
2020-06-23 18:00:00 33.5 8 Nordeste 23 Nordeste 0 -- -- 31
2020-06-23 17:00:00 32.8 9 Este 21 Este 0 -- -- 31
2020-06-23 16:00:00 32.4 9 Este 20 Este 0 -- -- 30
2020-06-23 15:00:00 30.5 12 Sudeste 23 Este 0 -- -- 33
2020-06-23 14:00:00 29.5 13 Este 27 Este 0 -- -- 34
2020-06-23 13:00:00 28.5 12 Sudeste 22 Sudeste 0 -- -- 36
2020-06-23 12:00:00 27.7 5 Nordeste 14 Noroeste 0 -- -- 44
2020-06-23 11:00:00 25.7 8 Norte 13 Norte 0 -- -- 44
2020-06-23 10:00:00 24.6 5 Norte 9 Noroeste 0 -- -- 49
2020-06-23 09:00:00 22.5 5 Noroeste 9 Noroeste 0 -- -- 54
2020-06-23 08:00:00 18.8 4 Sudeste 10 Sudeste 0 -- -- 64
2020-06-23 07:00:00 15.7 7 Sudeste 15 Sudeste 0 -- -- 72
2020-06-23 06:00:00 17.1 7 Sudeste 13 Este 0 -- -- 64
2020-06-23 05:00:00 16.7 7 Sudeste 10 Sudeste 0 -- -- 70
2020-06-23 04:00:00 16.3 2 Este 9 Noroeste 0 -- -- 72
2020-06-23 03:00:00 18.7 4 Sur 14 Sudeste 0 -- -- 61
2020-06-23 02:00:00 19.9 5 Sudeste 20 Oeste 0 -- -- 54
2020-06-23 01:00:00 21.8 5 Oeste 17 Sudeste 0 -- -- 47
2020-06-23 00:00:00 21.5 6 Sur 17 Oeste 0 -- -- 48
2020-06-22 23:00:00 21.2 3 Sur 17 Oeste 0 -- -- 47
2020-06-22 22:00:00 23.9 14 Oeste 17 Oeste 0 -- -- 38
2020-06-22 21:00:00 26.1 10 Noroeste 21 Noroeste 0 -- -- 35
2020-06-22 20:00:00 29.1 18 Noroeste 27 Noroeste 0 -- -- 28
2020-06-22 19:00:00 29.9 17 Noroeste 29 Noroeste 0 -- -- 32
2020-06-22 18:00:00 30.6 15 Noroeste 30 Noroeste 0 -- -- 30
2020-06-22 17:00:00 30.4 18 Noroeste 30 Noroeste 0 -- -- 29
2020-06-22 16:00:00 29.9 22 Noroeste 34 Noroeste 0 -- -- 31
2020-06-22 15:00:00 29 21 Noroeste 41 Oeste 0 -- -- 32
2020-06-22 14:00:00 27.9 24 Oeste 42 Oeste 0 -- -- 36
2020-06-22 13:00:00 26.2 24 Noroeste 40 Oeste 0 -- -- 42
2020-06-22 12:00:00 24.9 26 Oeste 40 Oeste 0 -- -- 46
2020-06-22 11:00:00 23.1 22 Oeste 35 Noroeste 0 -- -- 53
2020-06-22 10:00:00 22 18 Noroeste 40 Noroeste 0 -- -- 57
2020-06-22 09:00:00 19.9 26 Oeste 45 Oeste 0 -- -- 63
2020-06-22 08:00:00 18.4 25 Oeste 41 Oeste 0 -- -- 67
2020-06-22 07:00:00 17 13 Oeste 29 Oeste 0 -- -- 72
2020-06-22 06:00:00 17.2 19 Sudoeste 51 Oeste 0 -- -- 69
2020-06-22 05:00:00 17.5 43 Oeste 64 Oeste 0 -- -- 65
2020-06-22 04:00:00 17.8 44 Oeste 66 Oeste 0 -- -- 61
2020-06-22 03:00:00 18.1 40 Oeste 66 Oeste 0 -- -- 59
2020-06-22 02:00:00 18.1 27 Oeste 49 Oeste 0 -- -- 60
2020-06-22 01:00:00 19 23 Oeste 38 Oeste 0 -- -- 56
2020-06-22 00:00:00 20 23 Oeste 41 Oeste 0 -- -- 54
2020-06-21 23:00:00 21.6 24 Oeste 45 Noroeste 0 -- -- 49
2020-06-21 22:00:00 23 22 Noroeste 38 Oeste 0 -- -- 44
2020-06-21 21:00:00 25.8 25 Noroeste 37 Oeste 0 -- -- 36
2020-06-21 20:00:00 28.1 24 Noroeste 41 Noroeste 0 -- -- 32
2020-06-21 19:00:00 29.7 25 Noroeste 40 Noroeste 0 -- -- 28
2020-06-21 18:00:00 30.7 24 Noroeste 38 Noroeste 0 -- -- 27
2020-06-21 17:00:00 30.9 23 Noroeste 35 Noroeste 0 -- -- 29
2020-06-21 16:00:00 30.9 19 Noroeste 31 Noroeste 0 -- -- 29
2020-06-21 15:00:00 29.2 24 Oeste 34 Noroeste 0 -- -- 31
2020-06-21 14:00:00 29.8 17 Oeste 28 Noroeste 0 -- -- 34
2020-06-21 13:00:00 27.5 16 Oeste 32 Oeste 0 -- -- 38
2020-06-21 12:00:00 27 15 Oeste 26 Oeste 0 -- -- 36
2020-06-21 11:00:00 25.8 12 Noroeste 27 Oeste 0 -- -- 36
2020-06-21 10:00:00 23.4 8 Noroeste 25 Noroeste 0 -- -- 40
2020-06-21 09:00:00 21.3 12 Oeste 27 Oeste 0 -- -- 43
2020-06-21 08:00:00 19.9 8 Oeste 23 Sudoeste 0 -- -- 47
2020-06-21 07:00:00 18 5 Sudeste 19 Oeste 0 -- -- 54
2020-06-21 06:00:00 18.2 5 Sudoeste 21 Sudoeste 0 -- -- 59
2020-06-21 05:00:00 18.1 7 Sur 18 Sudoeste 0 -- -- 63
2020-06-21 04:00:00 19.4 5 Sur 13 Sudoeste 0 -- -- 62
2020-06-21 03:00:00 19.2 5 Sur 14 Este 0 -- -- 66
2020-06-21 02:00:00 20.6 9 Sudoeste 21 Oeste 0 -- -- 62
2020-06-21 01:00:00 20 5 Sur 12 Sudeste 0 -- -- 64
2020-06-21 00:00:00 19.9 9 Sudeste 11 Sudeste 0 -- -- 67
2020-06-20 23:00:00 20.7 9 Sudeste 12 Sudeste 0 -- -- 64
2020-06-20 22:00:00 22.3 2 Sur 9 Oeste 0 -- -- 57
2020-06-20 21:00:00 26.7 5 Oeste 12 Noroeste 0 -- -- 47
2020-06-20 20:00:00 29.1 6 Este 18 Este 0 -- -- 35
2020-06-20 19:00:00 30.2 10 Nordeste 19 Norte 0 -- -- 34
2020-06-20 18:00:00 31.7 11 Noroeste 20 Noroeste 0 -- -- 30
2020-06-20 17:00:00 31.5 9 Noroeste 22 Oeste 0 -- -- 30
2020-06-20 16:00:00 29.7 8 Oeste 22 Noroeste 0 -- -- 35
2020-06-20 15:00:00 29 11 Oeste 20 Oeste 0 -- -- 35
2020-06-20 14:00:00 27.1 4 Noroeste 14 Sur 0 -- -- 45
2020-06-20 13:00:00 25.9 8 Oeste 14 Sur 0 -- -- 49
2020-06-20 12:00:00 23.6 6 Oeste 16 Oeste 0 -- -- 56
2020-06-20 11:00:00 21.9 5 Oeste 17 Oeste 0 -- -- 61
2020-06-20 10:00:00 19.7 13 Oeste 22 Sudoeste 0 -- -- 69
2020-06-20 09:00:00 18.4 9 Oeste 18 Oeste 0 -- -- 69
2020-06-20 08:00:00 16.3 9 Oeste 15 Oeste 0 -- -- 77
2020-06-20 07:00:00 14 10 Sudeste 13 Sudeste 0 -- -- 84
2020-06-20 06:00:00 14.2 5 Sur 10 Oeste 0 -- -- 83
2020-06-20 05:00:00 14.5 3 Sur 8 Sudoeste 0 -- -- 83
2020-06-20 04:00:00 15.7 6 Noroeste 12 Noroeste 0 -- -- 79
2020-06-20 03:00:00 17 0 Calma 11 Nordeste 0 -- -- 79
2020-06-20 02:00:00 19.3 7 Noroeste 20 Noroeste 0 -- -- 75
2020-06-20 01:00:00 19.9 6 Sur 13 Este 0 -- -- 73
2020-06-20 00:00:00 19.9 8 Sur 19 Sudeste 0 -- -- 76
2020-06-19 23:00:00 20.7 13 Sudeste 22 Este 0 -- -- 73
2020-06-19 22:00:00 22 13 Este 26 Este 0 -- -- 68
2020-06-19 21:00:00 24.2 18 Este 26 Este 0 -- -- 57
2020-06-19 20:00:00 25.9 9 Este 20 Este 0 -- -- 47
2020-06-19 19:00:00 25.9 13 Este 29 Este 0 -- -- 48
2020-06-19 18:00:00 26.3 12 Nordeste 22 Este 0 -- -- 47
2020-06-19 17:00:00 27.1 10 Este 21 Sudeste 0 -- -- 46
2020-06-19 16:00:00 25.4 9 Este 19 Este 0 -- -- 49
2020-06-19 15:00:00 25.5 12 Norte 19 Norte 0 -- -- 48
2020-06-19 14:00:00 25 13 Norte 23 Norte 0 -- -- 47
2020-06-19 13:00:00 24.3 5 Noroeste 17 Oeste 0 -- -- 45
2020-06-19 12:00:00 21.3 5 Norte 10 Noroeste 0 -- -- 53
2020-06-19 11:00:00 19.4 3 Oeste 8 Oeste 0 -- -- 57
2020-06-19 10:00:00 17 3 Norte 16 Oeste 0 -- -- 62
2020-06-19 09:00:00 16.2 7 Oeste 10 Oeste 0 -- -- 66
2020-06-19 08:00:00 15 3 Noroeste 13 Noroeste 0 -- -- 69
2020-06-19 07:00:00 13.7 6 Sudeste 10 Sudeste 0 -- -- 81
2020-06-19 06:00:00 14.4 3 Sudoeste 7 Sudoeste 0 -- -- 75
2020-06-19 05:00:00 14.7 2 Sudeste 11 Oeste 0 -- -- 75
2020-06-19 04:00:00 15.2 4 Este 9 Sudoeste 0 -- -- 71
2020-06-19 03:00:00 14.9 2 Sudeste 8 Sudoeste 0 -- -- 74
2020-06-19 02:00:00 16.4 4 Oeste 9 Sudeste 0 -- -- 66
2020-06-19 01:00:00 15.9 6 Sudeste 10 Sudeste 0 -- -- 73
2020-06-19 00:00:00 16.9 3 Sur 10 Sudeste 0 -- -- 70
2020-06-18 23:00:00 18.2 4 Oeste 8 Oeste 0 -- -- 70
2020-06-18 22:00:00 19.8 3 Sudeste 8 Oeste 0 -- -- 62
2020-06-18 21:00:00 20.4 4 Oeste 10 Nordeste 0 -- -- 63
2020-06-18 20:00:00 22.5 6 Norte 13 Norte 0 -- -- 48
2020-06-18 19:00:00 23.3 6 Nordeste 15 Nordeste 0 -- -- 50
2020-06-18 18:00:00 22.4 12 Este 27 Noroeste 0 -- -- 53
2020-06-18 17:00:00 23.2 8 Norte 19 Norte 0 -- -- 52
2020-06-18 16:00:00 21.4 8 Este 18 Nordeste 0 -- -- 58
2020-06-18 15:00:00 22.3 8 Nordeste 19 Este 0 -- -- 55
2020-06-18 14:00:00 21.6 7 Nordeste 15 Norte 0 -- -- 57
2020-06-18 13:00:00 19.2 8 Nordeste 16 Este 0 -- -- 60
2020-06-18 12:00:00 18 10 Este 17 Este 0 -- -- 62
2020-06-18 11:00:00 16.8 5 Noroeste 15 Noroeste 0 -- -- 67
2020-06-18 10:00:00 16 4 Nordeste 13 Oeste 0 -- -- 73
2020-06-18 09:00:00 13.7 9 Oeste 15 Oeste 0 -- -- 87
2020-06-18 08:00:00 12.5 5 Nordeste 14 Oeste 0 -- -- 92
2020-06-18 07:00:00 11.6 7 Oeste 15 Noroeste 0.2 -- -- 93
2020-06-18 06:00:00 11.5 8 Este 44 Sudoeste 3.4 -- -- 93
2020-06-18 05:00:00 12.2 12 Oeste 24 Oeste 0 -- -- 87
2020-06-18 04:00:00 12 12 Oeste 24 Oeste 0 -- -- 90
2020-06-18 03:00:00 13 21 Oeste 34 Oeste 1 -- -- 82
2020-06-18 02:00:00 14.5 6 Noroeste 16 Oeste 0 -- -- 71
2020-06-18 01:00:00 15.4 12 Oeste 26 Oeste 0 -- -- 62
2020-06-18 00:00:00 16.7 19 Oeste 33 Oeste 0 -- -- 58
2020-06-17 23:00:00 14.8 5 Sudeste 9 Sudeste 0 -- -- 65
2020-06-17 22:00:00 16.6 8 Oeste 10 Sudoeste 0 -- -- 57
2020-06-17 21:00:00 19.1 9 Noroeste 22 Noroeste 0 -- -- 49
2020-06-17 20:00:00 21.4 16 Noroeste 27 Oeste 0 -- -- 42
2020-06-17 19:00:00 22.2 16 Noroeste 31 Noroeste 0 -- -- 41
2020-06-17 18:00:00 22.2 18 Noroeste 29 Noroeste 0 -- -- 41
2020-06-17 17:00:00 22.1 21 Noroeste 30 Oeste 0 -- -- 43
2020-06-17 16:00:00 21.8 22 Noroeste 36 Noroeste 0 -- -- 43
2020-06-17 15:00:00 21.4 24 Noroeste 43 Noroeste 0 -- -- 47
2020-06-17 14:00:00 20.2 21 Noroeste 36 Noroeste 0 -- -- 50
2020-06-17 13:00:00 19.5 19 Oeste 31 Noroeste 0 -- -- 51
2020-06-17 12:00:00 19 20 Noroeste 34 Noroeste 0 -- -- 53
2020-06-17 11:00:00 16.6 19 Noroeste 35 Oeste 0 -- -- 62
2020-06-17 10:00:00 15.6 15 Noroeste 31 Oeste 0 -- -- 64
2020-06-17 09:00:00 13.4 14 Oeste 24 Oeste 0 -- -- 77
2020-06-17 08:00:00 12.6 6 Oeste 18 Oeste 0 -- -- 81
2020-06-17 07:00:00 12.2 4 Sudoeste 13 Noroeste 0 -- -- 82
2020-06-17 06:00:00 11.7 3 Sur 24 Oeste 0 -- -- 85
2020-06-17 05:00:00 11.8 6 Noroeste 26 Sudoeste 0 -- -- 85
2020-06-17 04:00:00 11.7 10 Oeste 32 Oeste 0 -- -- 85
2020-06-17 03:00:00 12.2 18 Oeste 42 Oeste 0 -- -- 82
2020-06-17 02:00:00 12.7 16 Oeste 39 Oeste 0 -- -- 81
2020-06-17 01:00:00 13.5 29 Oeste 44 Noroeste 0 -- -- 79
2020-06-17 00:00:00 13.8 30 Oeste 46 Oeste 0 -- -- 78
2020-06-16 23:00:00 14.4 8 Oeste 32 Oeste 0 -- -- 74
2020-06-16 22:00:00 14.3 21 Oeste 36 Oeste 0 -- -- 73
2020-06-16 21:00:00 15.7 26 Oeste 39 Oeste 0 -- -- 75
2020-06-16 20:00:00 17.1 25 Noroeste 49 Noroeste 0 -- -- 66
2020-06-16 19:00:00 20.1 17 Noroeste 25 Norte 0 -- -- 68
2020-06-16 18:00:00 23.1 10 Norte 32 Norte 0 -- -- 57
2020-06-16 17:00:00 24.3 8 Oeste 26 Sudoeste 0 -- -- 47
2020-06-16 16:00:00 22.6 10 Noroeste 22 Noroeste 0 -- -- 48
2020-06-16 15:00:00 22.3 6 Sudoeste 17 Oeste 0 -- -- 59
2020-06-16 14:00:00 19.1 6 Sur 14 Sur 0 -- -- 72
2020-06-16 13:00:00 16.7 8 Sudoeste 15 Sudoeste 0.2 -- -- 82
2020-06-16 12:00:00 14.7 3 Sudeste 10 Sur 0.6 -- -- 95
2020-06-16 11:00:00 14.1 4 Norte 12 Norte 1.2 -- -- 96
2020-06-16 10:00:00 14.8 5 Noroeste 11 Sudeste 0.8 -- -- 93
2020-06-16 09:00:00 14.2 6 Sudeste 11 Sudeste 0 -- -- 92
2020-06-16 08:00:00 13.4 8 Sudeste 23 Sudoeste 0.8 -- -- 92
2020-06-16 07:00:00 -- -- -- -- -- -- -- -- --
2020-06-16 06:00:00 -- -- -- -- -- -- -- -- --
2020-06-16 05:00:00 -- -- -- -- -- -- -- -- --
2020-06-16 04:00:00 -- -- -- -- -- -- -- -- --
2020-06-16 03:00:00 16.6 17 Oeste 27 Oeste 0 -- -- 69
2020-06-16 02:00:00 17.2 16 Oeste 27 Sudoeste 0 -- -- 70
2020-06-16 01:00:00 17.8 2 Sudeste 10 Oeste 0 -- -- 66
2020-06-16 00:00:00 -- -- -- -- -- -- -- -- --
2020-06-15 23:00:00 18.7 8 Oeste 23 Oeste 0 -- -- 59
2020-06-15 22:00:00 19.6 15 Oeste 33 Oeste 0 -- -- 54
2020-06-15 21:00:00 21 21 Noroeste 32 Oeste 0 -- -- 50
2020-06-15 20:00:00 22.3 14 Noroeste 28 Noroeste 0 -- -- 47
2020-06-15 19:00:00 23 16 Noroeste 26 Noroeste 0 -- -- 44
2020-06-15 18:00:00 26 20 Noroeste 32 Noroeste 0 -- -- 38
2020-06-15 17:00:00 26 16 Noroeste 26 Noroeste 0 -- -- 38
2020-06-15 16:00:00 26.5 15 Oeste 32 Oeste 0 -- -- 36
2020-06-15 15:00:00 25.3 13 Sudoeste 33 Noroeste 0 -- -- 38
2020-06-15 14:00:00 24.9 16 Noroeste 27 Noroeste 0 -- -- 39
2020-06-15 13:00:00 23.3 14 Oeste 32 Oeste 0 -- -- 43
2020-06-15 12:00:00 22.6 17 Oeste 27 Oeste 0 -- -- 45
2020-06-15 11:00:00 18.7 6 Noroeste 16 Sudoeste 0 -- -- 56
2020-06-15 10:00:00 17.2 10 Sudoeste 16 Noroeste 0 -- -- 58
2020-06-15 09:00:00 15.8 7 Sudoeste 13 Noroeste 0 -- -- 62
2020-06-15 08:00:00 14.6 5 Sudoeste 13 Sudoeste 0 -- -- 66
2020-06-15 07:00:00 14.1 5 Sudoeste 15 Oeste 0 -- -- 66
2020-06-15 06:00:00 13.9 4 Oeste 19 Oeste 0 -- -- 68
2020-06-15 05:00:00 14.5 6 Oeste 24 Oeste 0 -- -- 66
2020-06-15 04:00:00 14.9 19 Oeste 26 Oeste 0 -- -- 67
2020-06-15 03:00:00 14.8 4 Sudeste 17 Sudoeste 0 -- -- 72
2020-06-15 02:00:00 16.2 4 Sur 26 Oeste 0 -- -- 63
2020-06-15 01:00:00 17.2 18 Oeste 26 Oeste 0 -- -- 63
2020-06-15 00:00:00 18.2 21 Oeste 28 Oeste 0 -- -- 56
2020-06-14 23:00:00 18.9 17 Oeste 30 Oeste 0 -- -- 48
2020-06-14 22:00:00 19.7 19 Noroeste 28 Noroeste 0 -- -- 50
2020-06-14 21:00:00 21.7 20 Noroeste 28 Noroeste 0 -- -- 43
2020-06-14 20:00:00 24 15 Noroeste 24 Noroeste 0 -- -- 38
2020-06-14 19:00:00 24.5 14 Noroeste 28 Oeste 0 -- -- 35
2020-06-14 18:00:00 25 16 Oeste 28 Noroeste 0 -- -- 34
2020-06-14 17:00:00 25.3 8 Sudoeste 33 Noroeste 0 -- -- 33
2020-06-14 16:00:00 25.4 12 Sudoeste 31 Noroeste 0 -- -- 33
2020-06-14 15:00:00 24.7 12 Sudoeste 27 Oeste 0 -- -- 33
2020-06-14 14:00:00 24 10 Oeste 29 Oeste 0 -- -- 39
2020-06-14 13:00:00 23.8 9 Noroeste 23 Norte 0 -- -- 40
2020-06-14 12:00:00 21.9 7 Norte 19 Norte 0 -- -- 44
2020-06-14 11:00:00 22.1 6 Oeste 22 Sudoeste 0 -- -- 42
2020-06-14 10:00:00 20.8 9 Oeste 16 Oeste 0 -- -- 50
2020-06-14 09:00:00 17.3 10 Oeste 16 Oeste 0 -- -- 58
2020-06-14 08:00:00 13.1 2 Sudeste 9 Sudeste 0 -- -- 78
2020-06-14 07:00:00 10.7 2 Sudeste 15 Sudeste 0 -- -- 81
2020-06-14 06:00:00 10.1 6 Sudeste 14 Sudeste 0 -- -- 80
2020-06-14 05:00:00 11.4 8 Sudeste 13 Sudeste 0 -- -- 75
2020-06-14 04:00:00 11.3 10 Sudeste 13 Sudeste 0 -- -- 76
2020-06-14 03:00:00 12.8 8 Sudeste 15 Sudeste 0 -- -- 73
2020-06-14 02:00:00 12.8 8 Sudeste 14 Sudeste 0 -- -- 73
2020-06-14 01:00:00 12.5 8 Sudeste 13 Sudeste 0 -- -- 73
2020-06-14 00:00:00 13 10 Sudeste 13 Sudeste 0 -- -- 72
2020-06-13 23:00:00 12.7 10 Sudeste 14 Sudeste 0 -- -- 72
2020-06-13 22:00:00 15.4 8 Sudeste 11 Sudeste 0 -- -- 62
2020-06-13 21:00:00 19.6 7 Noroeste 17 Noroeste 0 -- -- 46
2020-06-13 20:00:00 22.4 12 Noroeste 27 Noroeste 0 -- -- 36
2020-06-13 19:00:00 22.7 15 Oeste 32 Oeste 0 -- -- 33
2020-06-13 18:00:00 21.6 22 Oeste 46 Oeste 0 -- -- 36
2020-06-13 17:00:00 22.3 18 Oeste 37 Sudoeste 0 -- -- 35
2020-06-13 16:00:00 20.5 22 Oeste 44 Noroeste 0 -- -- 39
2020-06-13 15:00:00 21 19 Oeste 35 Oeste 0 -- -- 39
2020-06-13 14:00:00 20.5 21 Oeste 36 Oeste 0 -- -- 39
2020-06-13 13:00:00 19.6 25 Oeste 40 Oeste 0 -- -- 44
2020-06-13 12:00:00 19.3 26 Oeste 44 Oeste 0 -- -- 48
2020-06-13 11:00:00 16.6 28 Oeste 46 Oeste 0 -- -- 56
2020-06-13 10:00:00 15.4 21 Oeste 45 Oeste 0 -- -- 61
2020-06-13 09:00:00 15.1 26 Sudoeste 39 Oeste 0 -- -- 62
2020-06-13 08:00:00 13 17 Oeste 31 Oeste 0 -- -- 69
2020-06-13 07:00:00 12.5 14 Sudoeste 29 Sudoeste 0 -- -- 71
2020-06-13 06:00:00 11.8 6 Sudoeste 12 Sur 0 -- -- 73
2020-06-13 05:00:00 12.3 7 Sur 17 Sudoeste 0 -- -- 72
2020-06-13 04:00:00 12.8 11 Sudoeste 26 Oeste 0 -- -- 71
2020-06-13 03:00:00 12.4 12 Sudoeste 22 Sudoeste 0 -- -- 74
2020-06-13 02:00:00 11.9 5 Sur 10 Oeste 0 -- -- 79
2020-06-13 01:00:00 12.1 6 Oeste 39 Noroeste 0 -- -- 75
2020-06-13 00:00:00 14.6 19 Oeste 30 Oeste 0 -- -- 63
2020-06-12 23:00:00 15.2 3 Nordeste 24 Oeste 0 -- -- 62
2020-06-12 22:00:00 16.7 17 Noroeste 26 Noroeste 0 -- -- 56
2020-06-12 21:00:00 19.3 11 Oeste 28 Sudoeste 0 -- -- 40
2020-06-12 20:00:00 21.2 17 Sudoeste 38 Sur 0 -- -- 35
2020-06-12 19:00:00 21.8 19 Sudoeste 33 Sudoeste 0 -- -- 34
2020-06-12 18:00:00 19.9 22 Sudoeste 38 Sudoeste 0 -- -- 37
2020-06-12 17:00:00 20.6 17 Sudoeste 44 Sudoeste 0 -- -- 36
2020-06-12 16:00:00 20.3 18 Sudoeste 36 Sudoeste 0 -- -- 39
2020-06-12 15:00:00 19.8 14 Sudoeste 26 Sudoeste 0 -- -- 43
2020-06-12 14:00:00 19.2 14 Sudoeste 31 Sudoeste 0 -- -- 42
2020-06-12 13:00:00 20.3 14 Oeste 35 Sudoeste 0 -- -- 41
2020-06-12 12:00:00 18 16 Sudoeste 36 Sudoeste 0 -- -- 48
2020-06-12 11:00:00 16.8 18 Oeste 34 Sudoeste 0 -- -- 49
2020-06-12 10:00:00 15.6 17 Sudoeste 40 Sudoeste 0 -- -- 53
2020-06-12 09:00:00 14.2 13 Sur 25 Sur 0 -- -- 65
2020-06-12 08:00:00 11.9 9 Sudoeste 15 Sudoeste 0 -- -- 70
2020-06-12 07:00:00 11.2 8 Sudoeste 18 Sudoeste 0 -- -- 78
2020-06-12 06:00:00 10.8 12 Sudoeste 17 Sudoeste 0 -- -- 86
2020-06-12 05:00:00 10 12 Oeste 23 Oeste 0 -- -- 91
2020-06-12 04:00:00 9.8 6 Sudoeste 16 Sudoeste 0 -- -- 93
2020-06-12 03:00:00 10.2 10 Oeste 17 Sudoeste 0 -- -- 93
2020-06-12 02:00:00 11.8 14 Oeste 26 Oeste 0 -- -- 92
2020-06-12 01:00:00 13.5 15 Sudoeste 30 Oeste 0.6 -- -- 87
2020-06-12 00:00:00 13.5 17 Oeste 31 Oeste 1 -- -- 89
2020-06-11 23:00:00 15.4 18 Oeste 31 Sudoeste 3 -- -- 84
2020-06-11 22:00:00 16.3 4 Sudeste 9 Nordeste 0.2 -- -- 81
2020-06-11 21:00:00 18.9 2 Nordeste 16 Oeste 0 -- -- 71
2020-06-11 20:00:00 20.4 13 Oeste 18 Oeste 0 -- -- 54
2020-06-11 19:00:00 22.1 5 Sudeste 24 Este 0 -- -- 44
2020-06-11 18:00:00 22.3 12 Este 20 Sudeste 0 -- -- 44
2020-06-11 17:00:00 22.2 9 Este 20 Este 0 -- -- 45
2020-06-11 16:00:00 21.7 5 Nordeste 16 Nordeste 0 -- -- 46
2020-06-11 15:00:00 21.4 8 Nordeste 18 Sudeste 0 -- -- 45
2020-06-11 14:00:00 23.5 6 Sudeste 15 Sudoeste 0 -- -- 40
2020-06-11 13:00:00 23.1 9 Oeste 25 Noroeste 0 -- -- 43
2020-06-11 12:00:00 22.2 11 Oeste 23 Oeste 0 -- -- 44
2020-06-11 11:00:00 19.4 5 Sudeste 12 Sudeste 0 -- -- 51
2020-06-11 10:00:00 17.2 7 Sudeste 16 Sudeste 0 -- -- 55
2020-06-11 09:00:00 15.3 7 Sudeste 13 Sudeste 0 -- -- 60
2020-06-11 08:00:00 13.7 4 Sudeste 7 Sudeste 0 -- -- 70
2020-06-11 07:00:00 12.2 5 Sudeste 9 Sudeste 0 -- -- 78
2020-06-11 06:00:00 12.2 5 Sudeste 8 Sudeste 0 -- -- 78
2020-06-11 05:00:00 12.5 3 Sudeste 9 Sudeste 0 -- -- 77
2020-06-11 04:00:00 12.7 8 Sudeste 12 Sudeste 0 -- -- 73
2020-06-11 03:00:00 13.8 5 Sudeste 10 Sur 0 -- -- 66
2020-06-11 02:00:00 14.1 5 Sudeste 15 Este 0 -- -- 64
2020-06-11 01:00:00 14.9 10 Sudoeste 28 Oeste 0 -- -- 61
2020-06-11 00:00:00 14.9 14 Sudoeste 21 Oeste 0 -- -- 58